TimeEDT,TemperatureF,Dew PointF,Humidity,Sea Level PressureIn,VisibilityMPH,Wind Direction,Wind SpeedMPH,Gust SpeedMPH,PrecipitationIn,Events,Conditions,WindDirDegrees,DateUTC
12:53 AM,66.9,60.1,79,29.97,10.0,North,6.9,-,N/A,,Clear,350,2013-08-09 04:53:00
1:53 AM,66.0,61.0,84,29.98,10.0,Calm,Calm,-,N/A,,Clear,0,2013-08-09 05:53:00
2:53 AM,66.0,60.1,81,29.96,10.0,North,4.6,-,N/A,,Clear,350,2013-08-09 06:53:00
3:53 AM,64.0,59.0,84,29.96,10.0,North,4.6,-,N/A,,Clear,360,2013-08-09 07:53:00
4:53 AM,64.0,59.0,84,29.97,10.0,North,3.5,-,N/A,,Clear,350,2013-08-09 08:53:00
5:53 AM,64.0,60.1,87,29.97,10.0,Calm,Calm,-,N/A,,Clear,0,2013-08-09 09:53:00
6:53 AM,64.0,60.1,87,29.97,10.0,Calm,Calm,-,N/A,,Clear,0,2013-08-09 10:53:00
7:53 AM,64.9,59.0,81,29.99,10.0,Calm,Calm,-,N/A,,Clear,0,2013-08-09 11:53:00
8:53 AM,66.0,59.0,78,30.00,10.0,Calm,Calm,-,N/A,,Clear,0,2013-08-09 12:53:00
9:53 AM,69.1,62.1,78,30.00,10.0,Calm,Calm,-,N/A,,Clear,0,2013-08-09 13:53:00
10:53 AM,73.9,62.1,66,30.00,10.0,West,3.5,-,N/A,,Clear,260,2013-08-09 14:53:00
11:53 AM,75.9,59.0,56,30.01,10.0,Variable,6.9,-,N/A,,Clear,0,2013-08-09 15:53:00
12:53 PM,77.0,60.1,56,30.01,10.0,WNW,6.9,-,N/A,,Partly Cloudy,300,2013-08-09 16:53:00
1:53 PM,78.1,57.9,50,30.00,10.0,West,6.9,-,N/A,,Clear,260,2013-08-09 17:53:00
2:53 PM,79.0,59.0,50,29.99,10.0,Variable,3.5,-,N/A,,Clear,0,2013-08-09 18:53:00
3:53 PM,81.0,59.0,47,29.99,10.0,West,5.8,-,N/A,,Clear,280,2013-08-09 19:53:00
4:53 PM,79.0,59.0,50,29.99,10.0,WNW,5.8,-,N/A,,Clear,300,2013-08-09 20:53:00
5:53 PM,79.0,60.1,52,30.00,10.0,WNW,11.5,-,N/A,,Clear,290,2013-08-09 21:53:00
6:53 PM,77.0,61.0,58,29.99,10.0,West,6.9,-,N/A,,Clear,280,2013-08-09 22:53:00
7:53 PM,73.9,62.1,66,29.99,10.0,West,5.8,-,N/A,,Clear,260,2013-08-09 23:53:00
8:53 PM,72.0,62.1,71,30.01,10.0,SW,3.5,-,N/A,,Clear,230,2013-08-10 00:53:00
9:53 PM,71.1,62.1,73,30.01,10.0,Calm,Calm,-,N/A,,Clear,0,2013-08-10 01:53:00
10:53 PM,69.1,64.0,84,30.02,10.0,Calm,Calm,-,N/A,,Clear,0,2013-08-10 02:53:00
11:53 PM,66.9,62.1,84,30.03,10.0,Calm,Calm,-,N/A,,Clear,0,2013-08-10 03:53:00